createdAt,value
2023-04-30T00:00:36.491Z,25.95
2023-04-30T00:03:24.997Z,27.50
2023-04-30T00:05:53.740Z,20.13
2023-04-30T00:08:21.871Z,18.52
2023-04-30T00:10:49.760Z,22.50
2023-04-30T00:13:19.251Z,20.33
2023-04-30T00:15:47.080Z,20.00
2023-04-30T00:18:15.190Z,23.65
2023-04-30T00:20:42.885Z,19.00
2023-04-30T00:23:11.381Z,21.27
2023-04-30T00:25:39.173Z,20.48
2023-04-30T00:28:07.290Z,24.02
2023-04-30T00:30:35.251Z,25.25
2023-04-30T00:33:03.426Z,20.67
2023-04-30T00:35:31.412Z,19.48
2023-04-30T00:37:59.602Z,22.67
2023-04-30T00:40:27.439Z,22.77
2023-04-30T00:42:56.101Z,23.40
2023-04-30T00:45:23.898Z,21.50
2023-04-30T00:47:52.442Z,22.33
2023-04-30T00:50:20.559Z,19.55
2023-04-30T00:52:49.161Z,22.10
2023-04-30T00:55:17.600Z,20.15
2023-04-30T00:57:47.113Z,25.20
2023-04-30T01:00:15.406Z,24.67
2023-04-30T01:02:44.434Z,21.95
2023-04-30T01:05:12.921Z,22.40
2023-04-30T01:07:46.783Z,23.58
2023-04-30T01:10:15.778Z,21.05
2023-04-30T01:12:56.897Z,19.90
2023-04-30T01:16:03.401Z,38.10
2023-04-30T01:18:42.371Z,21.50
2023-04-30T01:21:10.608Z,22.25
2023-04-30T01:24:13.855Z,18.65
2023-04-30T01:27:29.626Z,19.35
2023-04-30T01:29:58.327Z,19.23
2023-04-30T01:32:27.182Z,21.60
2023-04-30T01:34:55.621Z,21.73
2023-04-30T01:37:38.557Z,21.70
2023-04-30T01:40:41.318Z,21.95
2023-04-30T01:43:20.269Z,21.15
2023-04-30T01:46:02.067Z,19.77
2023-04-30T01:48:40.636Z,25.17
2023-04-30T01:51:17.688Z,20.80
2023-04-30T01:53:46.611Z,24.50
2023-04-30T01:56:30.761Z,20.92
2023-04-30T01:59:00.982Z,25.23
2023-04-30T02:01:32.224Z,22.10
2023-04-30T02:04:00.868Z,21.17
2023-04-30T02:06:30.447Z,21.15
2023-04-30T02:09:04.514Z,21.65
2023-04-30T02:11:33.106Z,27.40
2023-04-30T02:14:00.995Z,21.50
2023-04-30T02:16:29.372Z,23.50
2023-04-30T02:18:57.189Z,24.20
2023-04-30T02:21:25.985Z,25.70
2023-04-30T02:23:54.210Z,21.73
2023-04-30T02:26:22.397Z,24.52
2023-04-30T02:28:50.262Z,20.33
2023-04-30T02:31:18.776Z,22.88
2023-04-30T02:33:47.014Z,22.23
2023-04-30T02:36:15.171Z,23.83
2023-04-30T02:38:42.966Z,24.65
2023-04-30T02:41:11.046Z,22.40
2023-04-30T02:43:38.997Z,29.42
2023-04-30T02:46:07.227Z,23.40
2023-04-30T02:48:35.074Z,25.75
2023-04-30T02:51:04.891Z,25.77
2023-04-30T02:53:32.692Z,27.55
2023-04-30T02:56:00.922Z,21.20
2023-04-30T02:58:28.747Z,21.38
2023-04-30T03:00:57.683Z,23.33
2023-04-30T03:03:25.591Z,25.67
2023-04-30T03:05:57.125Z,26.67
2023-04-30T03:08:25.280Z,20.80
2023-04-30T03:10:53.449Z,23.95
2023-04-30T03:13:21.320Z,27.58
2023-04-30T03:15:49.399Z,27.80
2023-04-30T03:18:17.749Z,24.42
2023-04-30T03:20:46.022Z,20.73
2023-04-30T03:23:14.093Z,21.23
2023-04-30T03:25:42.316Z,20.77
2023-04-30T03:28:10.388Z,25.30
2023-04-30T03:30:38.838Z,26.67
2023-04-30T03:33:06.938Z,20.42
2023-04-30T03:35:35.402Z,26.27
2023-04-30T03:38:03.496Z,22.55
2023-04-30T03:40:31.828Z,25.45
2023-04-30T03:42:59.663Z,26.52
2023-04-30T03:45:27.837Z,19.08
2023-04-30T03:47:55.799Z,25.63
2023-04-30T03:50:24.023Z,25.50
2023-04-30T03:52:51.948Z,23.25
2023-04-30T03:55:20.166Z,21.25
2023-04-30T03:57:47.980Z,21.08
2023-04-30T04:00:16.150Z,23.35
2023-04-30T04:02:49.300Z,21.17
2023-04-30T04:05:17.520Z,25.88
2023-04-30T04:07:46.959Z,23.85
2023-04-30T04:10:15.730Z,23.45
2023-04-30T04:12:44.022Z,22.90
2023-04-30T04:15:12.281Z,20.10
2023-04-30T04:17:40.428Z,23.98
2023-04-30T04:20:10.528Z,22.73
2023-04-30T04:22:39.938Z,21.50
2023-04-30T04:25:10.121Z,21.95
2023-04-30T04:27:38.842Z,24.30
2023-04-30T04:30:07.785Z,22.95
2023-04-30T04:32:46.777Z,20.65
2023-04-30T04:35:16.310Z,24.55
2023-04-30T04:37:44.297Z,26.35
2023-04-30T04:40:12.734Z,25.55
2023-04-30T04:42:41.168Z,29.05
2023-04-30T04:45:10.139Z,28.65
2023-04-30T04:47:38.524Z,26.55
2023-04-30T04:50:07.979Z,27.73
2023-04-30T04:52:36.229Z,32.05
2023-04-30T04:55:05.426Z,25.95
2023-04-30T04:57:33.870Z,32.33
2023-04-30T05:00:02.268Z,29.90
2023-04-30T05:02:30.743Z,32.78
2023-04-30T05:04:59.269Z,29.42
2023-04-30T05:07:27.170Z,24.85
2023-04-30T05:09:56.004Z,25.48
2023-04-30T05:12:24.192Z,23.48
2023-04-30T05:14:52.602Z,22.85
2023-04-30T05:17:20.688Z,29.40
2023-04-30T05:19:50.798Z,23.08
2023-04-30T05:22:18.751Z,23.00
2023-04-30T05:24:47.056Z,23.85
2023-04-30T05:27:15.136Z,20.63
2023-04-30T05:29:43.719Z,21.25
2023-04-30T05:32:11.811Z,22.17
2023-04-30T05:34:40.148Z,28.95
2023-04-30T05:37:08.054Z,22.70
2023-04-30T05:39:36.401Z,25.40
2023-04-30T05:42:04.357Z,31.30
2023-04-30T05:44:32.661Z,23.67
2023-04-30T05:47:00.578Z,26.35
2023-04-30T05:49:28.763Z,29.58
2023-04-30T05:51:56.736Z,27.15
2023-04-30T05:54:25.067Z,25.27
2023-04-30T05:56:52.957Z,26.98
2023-04-30T05:59:21.167Z,30.42
2023-04-30T06:01:49.127Z,27.60
2023-04-30T06:04:17.779Z,29.63
2023-04-30T06:06:46.025Z,25.27
2023-04-30T06:09:14.391Z,24.10
2023-04-30T06:11:42.753Z,31.15
2023-04-30T06:14:11.491Z,32.65
2023-04-30T06:16:39.412Z,29.45
2023-04-30T06:19:07.776Z,25.02
2023-04-30T06:21:35.713Z,28.67
2023-04-30T06:24:04.194Z,22.77
2023-04-30T06:26:32.971Z,21.17
2023-04-30T06:29:01.314Z,23.92
2023-04-30T06:31:29.205Z,25.38
2023-04-30T06:33:57.645Z,19.83
2023-04-30T06:36:25.585Z,24.55
2023-04-30T06:38:53.963Z,22.40
2023-04-30T06:41:22.009Z,21.15
2023-04-30T06:43:50.277Z,22.00
2023-04-30T06:46:18.348Z,19.10
2023-04-30T06:48:46.614Z,20.30
2023-04-30T06:51:14.588Z,17.70
2023-04-30T06:53:43.116Z,18.88
2023-04-30T06:56:11.088Z,22.33
2023-04-30T06:58:39.574Z,18.92
2023-04-30T07:01:07.528Z,18.05
2023-04-30T07:03:36.630Z,19.55
2023-04-30T07:06:04.793Z,18.98
2023-04-30T07:08:33.100Z,16.38
2023-04-30T07:11:00.982Z,21.63
2023-04-30T07:13:29.154Z,15.48
2023-04-30T07:15:57.208Z,18.23
2023-04-30T07:18:25.725Z,17.23
2023-04-30T07:20:53.635Z,16.70
2023-04-30T07:23:22.115Z,21.52
2023-04-30T07:25:50.241Z,12.55
2023-04-30T07:28:18.430Z,17.58
2023-04-30T07:30:46.384Z,18.90
2023-04-30T07:33:14.719Z,21.10
2023-04-30T07:35:42.820Z,28.67
2023-04-30T07:38:11.218Z,17.27
2023-04-30T07:40:39.190Z,15.88
2023-04-30T07:43:07.680Z,14.98
2023-04-30T07:45:36.915Z,16.08
2023-04-30T07:48:05.474Z,13.70
2023-04-30T07:50:37.319Z,14.35
2023-04-30T07:53:09.865Z,14.65
2023-04-30T07:55:37.821Z,19.20
2023-04-30T07:58:06.106Z,14.10
2023-04-30T08:00:34.013Z,9.73
2023-04-30T08:03:02.445Z,23.65
2023-04-30T08:05:30.523Z,13.45
2023-04-30T08:07:58.735Z,19.63
2023-04-30T08:10:27.409Z,11.45
2023-04-30T08:12:55.573Z,17.98
2023-04-30T08:15:23.632Z,14.13
2023-04-30T08:17:52.945Z,21.92
2023-04-30T08:20:23.772Z,16.05
2023-04-30T08:22:52.398Z,16.27
2023-04-30T08:25:20.680Z,10.43
2023-04-30T08:27:49.196Z,13.73
2023-04-30T08:30:17.468Z,13.40
2023-04-30T08:32:46.094Z,14.55
2023-04-30T08:35:14.136Z,11.18
2023-04-30T08:37:42.267Z,14.02
2023-04-30T08:40:12.238Z,14.75
2023-04-30T08:42:54.257Z,13.27
2023-04-30T08:45:22.362Z,12.25
2023-04-30T08:47:50.928Z,18.80
2023-04-30T08:50:18.926Z,12.77
2023-04-30T08:52:47.207Z,12.70
2023-04-30T08:55:15.253Z,12.57
2023-04-30T08:57:43.505Z,11.05
2023-04-30T09:00:11.813Z,13.80
2023-04-30T09:02:42.485Z,15.52
2023-04-30T09:05:12.783Z,18.20
2023-04-30T09:10:25.815Z,16.13
2023-04-30T09:13:05.855Z,9.07
2023-04-30T09:15:35.283Z,10.88
2023-04-30T09:18:11.215Z,10.38
2023-04-30T09:20:55.240Z,6.22
2023-04-30T09:23:24.384Z,7.05
2023-04-30T09:25:52.340Z,10.70
2023-04-30T09:28:28.950Z,8.23
2023-04-30T09:30:57.844Z,8.13
2023-04-30T09:33:26.129Z,5.00
2023-04-30T09:35:54.156Z,12.25
2023-04-30T09:38:33.256Z,6.57
2023-04-30T09:41:02.214Z,8.00
2023-04-30T09:43:31.121Z,5.53
2023-04-30T09:46:00.279Z,2.95
2023-04-30T09:48:29.052Z,4.47
2023-04-30T09:50:57.049Z,3.25
2023-04-30T09:53:27.595Z,5.53
2023-04-30T09:55:59.352Z,16.33
2023-04-30T09:58:29.488Z,53.20
2023-04-30T10:01:00.183Z,12.85
2023-04-30T10:03:29.633Z,5.07
2023-04-30T10:05:57.744Z,2.83
2023-04-30T10:08:34.811Z,2.63
2023-04-30T10:11:03.903Z,1.30
2023-04-30T10:13:48.083Z,4.22
2023-04-30T10:16:25.781Z,6.72
2023-04-30T10:18:56.253Z,2.45
2023-04-30T10:21:27.083Z,1.67
2023-04-30T10:23:55.595Z,2.63
2023-04-30T10:26:25.011Z,2.40
2023-04-30T10:28:55.424Z,1.42
2023-04-30T10:31:24.733Z,2.47
2023-04-30T10:34:17.517Z,4.60
2023-04-30T10:36:54.895Z,3.10
2023-04-30T10:39:27.869Z,1.25
2023-04-30T10:42:04.576Z,2.38
2023-04-30T10:44:37.422Z,1.80
2023-04-30T10:47:06.950Z,1.60
2023-04-30T10:49:35.441Z,3.08
2023-04-30T10:52:05.269Z,4.43
2023-04-30T10:54:37.868Z,2.47
2023-04-30T10:57:20.532Z,1.65
2023-04-30T11:00:14.703Z,3.22
2023-04-30T11:02:45.303Z,1.02
2023-04-30T11:05:15.726Z,3.95
2023-04-30T11:07:51.459Z,1.52
2023-04-30T11:10:25.033Z,2.92
2023-04-30T11:12:55.450Z,1.02
2023-04-30T11:15:32.265Z,3.38
2023-04-30T11:18:00.293Z,2.65
2023-04-30T11:20:28.576Z,2.58
2023-04-30T11:23:22.123Z,0.80
2023-04-30T11:26:01.607Z,1.17
2023-04-30T11:28:31.993Z,1.60
2023-04-30T11:31:01.275Z,2.85
2023-04-30T11:33:31.912Z,3.65
2023-04-30T11:36:02.040Z,1.17
2023-04-30T11:38:34.651Z,3.78
2023-04-30T11:41:04.726Z,3.08
2023-04-30T11:43:34.813Z,3.70
2023-04-30T11:46:14.293Z,3.40
2023-04-30T11:48:45.212Z,3.63
2023-04-30T11:51:18.644Z,6.13
2023-04-30T11:53:51.893Z,3.60
2023-04-30T11:56:25.868Z,3.70
2023-04-30T11:58:56.095Z,3.63
2023-04-30T12:01:28.728Z,4.57
2023-04-30T12:03:57.784Z,3.55
2023-04-30T12:06:28.955Z,7.22
2023-04-30T12:08:59.278Z,1.98
2023-04-30T12:11:32.262Z,5.55
2023-04-30T12:14:14.825Z,4.32
2023-04-30T12:16:52.522Z,4.85
2023-04-30T12:19:25.664Z,4.07
2023-04-30T12:21:55.358Z,4.43
2023-04-30T12:24:27.663Z,2.97
2023-04-30T12:26:56.104Z,1.70
2023-04-30T12:29:25.847Z,1.67
2023-04-30T12:31:54.915Z,1.58
2023-04-30T12:34:27.229Z,5.40
2023-04-30T12:36:58.603Z,2.33
2023-04-30T12:39:33.474Z,1.17
2023-04-30T12:42:02.013Z,3.83
2023-04-30T12:44:30.093Z,5.85
2023-04-30T12:47:01.117Z,1.17
2023-04-30T12:49:30.790Z,3.58
2023-04-30T12:52:09.879Z,16.85
2023-04-30T12:54:39.314Z,1.10
2023-04-30T12:57:12.689Z,1.95
2023-04-30T13:02:27.638Z,2.40
2023-04-30T13:04:55.814Z,4.97
2023-04-30T13:07:25.009Z,0.70
2023-04-30T13:12:21.511Z,5.00
2023-04-30T13:14:49.566Z,1.80
2023-04-30T13:17:18.085Z,4.03
2023-04-30T13:19:46.161Z,4.57
2023-04-30T13:22:14.520Z,4.95
2023-04-30T13:24:42.519Z,1.38
2023-04-30T13:27:11.817Z,1.10
2023-04-30T13:29:39.835Z,2.03
2023-04-30T13:32:08.581Z,6.38
2023-04-30T13:34:36.540Z,0.90
2023-04-30T13:37:04.900Z,5.55
2023-04-30T13:39:32.916Z,0.90
2023-04-30T13:42:01.977Z,0.68
2023-04-30T13:44:33.131Z,4.70
2023-04-30T13:47:03.019Z,2.42
2023-04-30T13:49:31.131Z,0.73
2023-04-30T13:51:59.467Z,7.28
2023-04-30T13:54:27.634Z,3.83
2023-04-30T13:56:56.155Z,2.42
2023-04-30T13:59:24.159Z,4.60
2023-04-30T14:01:52.543Z,4.32
2023-04-30T14:04:20.654Z,1.17
2023-04-30T14:06:49.362Z,2.85
2023-04-30T14:09:18.580Z,3.22
2023-04-30T14:11:47.225Z,2.13
2023-04-30T14:14:15.268Z,2.45
2023-04-30T14:16:45.109Z,1.00
2023-04-30T14:19:13.209Z,3.70
2023-04-30T14:21:41.501Z,1.92
2023-04-30T14:24:10.879Z,1.83
2023-04-30T14:26:43.013Z,1.92
2023-04-30T14:29:10.959Z,7.72
2023-04-30T14:31:39.269Z,5.18
2023-04-30T14:34:07.322Z,3.75
2023-04-30T14:36:37.092Z,3.15
2023-04-30T14:39:05.343Z,1.63
2023-04-30T14:41:37.883Z,2.83
2023-04-30T14:44:05.858Z,2.60
2023-04-30T14:46:35.001Z,1.15
2023-04-30T14:49:04.610Z,1.27
2023-04-30T14:51:33.523Z,0.90
2023-04-30T14:54:02.967Z,0.82
2023-04-30T14:56:31.598Z,4.57
2023-04-30T14:58:59.474Z,2.78
2023-04-30T15:01:28.683Z,1.77
2023-04-30T15:03:56.863Z,3.33
2023-04-30T15:06:25.319Z,1.38
2023-04-30T15:08:53.432Z,1.55
2023-04-30T15:11:21.935Z,2.13
2023-04-30T15:13:50.234Z,2.42
2023-04-30T15:16:18.674Z,2.85
2023-04-30T15:18:47.264Z,1.50
2023-04-30T15:21:15.563Z,7.93
2023-04-30T15:23:44.049Z,6.55
2023-04-30T15:26:12.480Z,2.83
2023-04-30T15:28:40.572Z,2.55
2023-04-30T15:31:09.060Z,5.22
2023-04-30T15:33:42.170Z,2.08
2023-04-30T15:36:11.239Z,3.22
2023-04-30T15:38:39.452Z,5.95
2023-04-30T15:41:07.712Z,3.20
2023-04-30T15:43:35.790Z,2.05
2023-04-30T15:46:04.181Z,3.90
2023-04-30T15:48:32.122Z,4.45
2023-04-30T15:51:00.397Z,6.55
2023-04-30T15:53:28.263Z,2.55
2023-04-30T15:55:57.325Z,3.63
2023-04-30T15:58:25.191Z,4.05
2023-04-30T16:00:53.987Z,4.35
2023-04-30T16:03:21.972Z,3.05
2023-04-30T16:05:50.303Z,1.50
2023-04-30T16:08:18.300Z,2.88
2023-04-30T16:10:47.250Z,1.70
2023-04-30T16:13:15.301Z,2.35
2023-04-30T16:15:43.517Z,1.80
2023-04-30T16:18:11.614Z,1.95
2023-04-30T16:20:42.806Z,2.17
2023-04-30T16:23:10.780Z,4.78
2023-04-30T16:25:39.068Z,3.53
2023-04-30T16:28:06.937Z,3.17
2023-04-30T16:30:35.801Z,3.33
2023-04-30T16:33:04.025Z,2.08
2023-04-30T16:35:32.303Z,2.03
2023-04-30T16:38:00.315Z,2.40
2023-04-30T16:40:28.686Z,5.93
2023-04-30T16:42:56.895Z,2.70
2023-04-30T16:45:25.318Z,5.00
2023-04-30T16:47:53.555Z,3.55
2023-04-30T16:50:22.422Z,2.58
2023-04-30T16:52:50.489Z,3.10
2023-04-30T16:55:18.949Z,4.85
2023-04-30T16:57:46.794Z,3.53
2023-04-30T17:00:16.926Z,3.38
2023-04-30T17:02:53.478Z,8.57
2023-04-30T17:05:22.454Z,2.53
2023-04-30T17:07:50.381Z,5.43
2023-04-30T17:10:19.767Z,3.47
2023-04-30T17:12:47.790Z,4.90
2023-04-30T17:15:16.167Z,4.05
2023-04-30T17:17:44.099Z,5.28
2023-04-30T17:20:12.752Z,2.58
2023-04-30T17:22:40.756Z,6.40
2023-04-30T17:25:09.764Z,3.80
2023-04-30T17:27:37.872Z,2.78
2023-04-30T17:30:07.004Z,12.15
2023-04-30T17:32:34.896Z,5.53
2023-04-30T17:35:06.266Z,6.97
2023-04-30T17:37:35.552Z,7.07
2023-04-30T17:40:05.887Z,13.07
2023-04-30T17:42:34.246Z,3.85
2023-04-30T17:45:02.904Z,2.63
2023-04-30T17:47:31.964Z,3.67
2023-04-30T17:50:00.525Z,8.10
2023-04-30T17:52:28.415Z,5.05
2023-04-30T17:54:57.128Z,3.45
2023-04-30T17:57:25.438Z,5.45
2023-04-30T17:59:54.486Z,3.75
2023-04-30T18:02:22.731Z,6.38
2023-04-30T18:04:51.296Z,4.78
2023-04-30T18:07:20.097Z,4.38
2023-04-30T18:09:48.688Z,1.25
2023-04-30T18:12:17.848Z,1.65
2023-04-30T18:14:46.204Z,4.63
2023-04-30T18:17:15.656Z,2.40
2023-04-30T18:19:46.701Z,6.72
2023-04-30T18:22:14.613Z,4.75
2023-04-30T18:24:43.006Z,1.80
2023-04-30T18:27:12.885Z,1.38
2023-04-30T18:29:43.615Z,6.68
2023-04-30T18:32:13.981Z,2.55
2023-04-30T18:34:42.690Z,1.40
2023-04-30T18:37:11.033Z,5.18
2023-04-30T18:39:39.324Z,12.02
2023-04-30T18:42:07.281Z,2.88
2023-04-30T18:44:35.659Z,3.38
2023-04-30T18:47:05.084Z,4.20
2023-04-30T18:49:33.339Z,4.32
2023-04-30T18:52:01.437Z,3.92
2023-04-30T18:54:29.966Z,3.40
2023-04-30T18:56:58.690Z,3.22
2023-04-30T18:59:29.050Z,2.88
2023-04-30T19:01:57.107Z,5.20
2023-04-30T19:04:25.484Z,3.00
2023-04-30T19:06:55.381Z,1.60
2023-04-30T19:09:24.136Z,2.95
2023-04-30T19:11:55.713Z,7.65
2023-04-30T19:14:24.541Z,3.33
2023-04-30T19:16:52.754Z,2.72
2023-04-30T19:19:21.252Z,5.55
2023-04-30T19:21:49.289Z,4.63
2023-04-30T19:24:17.630Z,3.08
2023-04-30T19:26:45.576Z,2.78
2023-04-30T19:29:13.868Z,2.25
2023-04-30T19:31:42.000Z,2.72
2023-04-30T19:34:11.298Z,3.72
2023-04-30T19:36:40.346Z,62.92
2023-04-30T19:39:10.901Z,4.60
2023-04-30T19:41:39.894Z,1.65
2023-04-30T19:44:08.872Z,2.22
2023-04-30T19:46:37.027Z,1.60
2023-04-30T19:49:05.561Z,1.88
2023-04-30T19:51:33.541Z,5.65
2023-04-30T19:54:01.955Z,1.42
2023-04-30T19:56:31.321Z,4.15
2023-04-30T19:59:00.137Z,4.05
2023-04-30T20:01:28.914Z,3.78
2023-04-30T20:03:58.073Z,7.70
2023-04-30T20:06:27.612Z,5.13
2023-04-30T20:09:00.269Z,3.38
2023-04-30T20:11:29.492Z,4.03
2023-04-30T20:13:58.872Z,2.05
2023-04-30T20:16:27.857Z,3.20
2023-04-30T20:18:58.409Z,2.10
2023-04-30T20:21:27.236Z,9.20
2023-04-30T20:23:55.779Z,3.53
2023-04-30T20:26:26.482Z,6.13
2023-04-30T20:28:55.298Z,3.22
2023-04-30T20:31:23.407Z,3.78
2023-04-30T20:33:52.256Z,4.20
2023-04-30T20:36:21.284Z,6.18
2023-04-30T20:38:49.713Z,12.68
2023-04-30T20:41:17.622Z,3.25
2023-04-30T20:43:46.035Z,8.40
2023-04-30T20:46:14.964Z,6.40
2023-04-30T20:48:43.391Z,3.15
2023-04-30T20:51:11.372Z,6.93
2023-04-30T20:53:39.896Z,4.82
2023-04-30T20:56:08.245Z,4.80
2023-04-30T20:58:37.132Z,6.03
2023-04-30T21:01:05.113Z,5.22
2023-04-30T21:03:33.552Z,3.58
2023-04-30T21:06:01.784Z,2.53
2023-04-30T21:08:30.265Z,3.20
2023-04-30T21:10:58.315Z,4.53
2023-04-30T21:13:26.650Z,7.40
2023-04-30T21:15:55.077Z,4.20
2023-04-30T21:18:26.771Z,7.97
2023-04-30T21:20:56.556Z,14.63
2023-04-30T21:23:24.938Z,5.82
2023-04-30T21:25:54.865Z,4.68
2023-04-30T21:28:23.465Z,6.63
2023-04-30T21:30:51.412Z,4.68
2023-04-30T21:33:20.571Z,4.28
2023-04-30T21:35:48.509Z,5.65
2023-04-30T21:38:16.826Z,6.35
2023-04-30T21:40:44.907Z,7.53
2023-04-30T21:43:13.318Z,9.77
2023-04-30T21:45:42.711Z,7.78
2023-04-30T21:48:11.808Z,9.15
2023-04-30T21:50:40.309Z,6.25
2023-04-30T21:53:08.677Z,7.38
2023-04-30T21:55:36.594Z,6.95
2023-04-30T21:58:04.979Z,15.63
2023-04-30T22:00:33.123Z,9.63
2023-04-30T22:03:01.452Z,6.85
2023-04-30T22:05:29.429Z,10.27
2023-04-30T22:07:57.928Z,12.10
2023-04-30T22:10:25.914Z,6.90
2023-04-30T22:12:54.497Z,6.60
2023-04-30T22:15:22.842Z,5.28
2023-04-30T22:17:51.633Z,9.90
2023-04-30T22:20:19.707Z,7.80
2023-04-30T22:22:47.975Z,3.85
2023-04-30T22:25:16.181Z,3.58
2023-04-30T22:27:45.936Z,4.13
2023-04-30T22:30:14.117Z,9.25
2023-04-30T22:32:42.588Z,8.30
2023-04-30T22:35:11.505Z,8.18
2023-04-30T22:37:39.837Z,7.55
2023-04-30T22:40:08.468Z,8.73
2023-04-30T22:42:37.038Z,11.60
2023-04-30T22:45:05.477Z,7.22
2023-04-30T22:47:35.444Z,11.50
2023-04-30T22:50:04.136Z,5.88
2023-04-30T22:52:33.344Z,4.57
2023-04-30T22:55:02.739Z,6.53
2023-04-30T22:57:31.080Z,9.95
2023-04-30T22:59:59.455Z,7.90
2023-04-30T23:02:29.003Z,8.18
2023-04-30T23:04:57.226Z,7.93
2023-04-30T23:07:25.597Z,17.23
2023-04-30T23:09:54.025Z,5.60
2023-04-30T23:12:22.725Z,5.13
2023-04-30T23:14:51.140Z,4.65
2023-04-30T23:17:19.639Z,2.33
2023-04-30T23:19:47.584Z,3.97
2023-04-30T23:22:17.478Z,6.38
2023-04-30T23:24:45.578Z,5.45
2023-04-30T23:27:13.928Z,6.07
2023-04-30T23:29:43.222Z,5.50
2023-04-30T23:32:11.715Z,11.60
2023-04-30T23:34:39.784Z,3.35
2023-04-30T23:37:08.025Z,4.22
2023-04-30T23:39:36.160Z,6.32
2023-04-30T23:42:04.528Z,3.40
2023-04-30T23:44:32.752Z,4.03
2023-04-30T23:47:01.162Z,6.50
2023-04-30T23:49:29.128Z,7.72
2023-04-30T23:51:57.549Z,3.28
2023-04-30T23:54:25.611Z,5.45
2023-04-30T23:56:53.946Z,5.07
2023-04-30T23:59:26.175Z,2.72
